createdAt,value
2019-05-03T00:04:51.623Z,4.33
2019-05-03T00:09:53.431Z,5.23
2019-05-03T00:14:55.947Z,4.00
2019-05-03T00:19:57.382Z,4.50
2019-05-03T00:25:05.857Z,4.30
2019-05-03T00:30:02.829Z,4.77
2019-05-03T00:35:04.259Z,4.40
2019-05-03T00:40:06.130Z,4.83
2019-05-03T00:45:07.411Z,4.57
2019-05-03T00:50:08.791Z,4.67
2019-05-03T00:55:18.504Z,4.97
2019-05-03T01:00:13.679Z,5.30
2019-05-03T01:05:15.044Z,5.87
2019-05-03T01:10:16.352Z,5.37
2019-05-03T01:15:18.005Z,5.00
2019-05-03T01:20:19.381Z,5.30
2019-05-03T01:25:32.023Z,5.03
2019-05-03T01:30:23.863Z,5.80
2019-05-03T01:35:25.215Z,5.87
2019-05-03T01:40:26.504Z,5.50
2019-05-03T01:45:27.783Z,6.17
2019-05-03T01:50:29.430Z,5.47
2019-05-03T01:55:43.537Z,5.87
2019-05-03T02:00:34.701Z,6.47
2019-05-03T02:05:36.170Z,6.27
2019-05-03T02:10:37.799Z,7.03
2019-05-03T02:15:39.073Z,7.00
2019-05-03T02:20:41.824Z,7.00
2019-05-03T02:25:55.151Z,7.70
2019-05-03T02:30:46.487Z,6.90
2019-05-03T02:35:47.754Z,8.10
2019-05-03T02:40:49.047Z,7.47
2019-05-03T02:45:50.603Z,7.50
2019-05-03T02:50:51.887Z,7.47
2019-05-03T02:55:55.934Z,7.20
2019-05-03T03:00:57.654Z,7.40
2019-05-03T03:06:00.158Z,8.40
2019-05-03T03:11:02.866Z,7.90
2019-05-03T03:16:06.771Z,8.00
2019-05-03T03:21:09.002Z,7.67
2019-05-03T03:26:10.253Z,6.90
2019-05-03T03:31:50.801Z,6.40
2019-05-03T03:37:00.694Z,7.47
2019-05-03T03:41:55.959Z,8.23
2019-05-03T03:46:57.474Z,8.73
2019-05-03T03:51:59.102Z,8.13
2019-05-03T03:57:04.989Z,7.87
2019-05-03T04:02:05.904Z,7.50
2019-05-03T04:07:07.143Z,7.27
2019-05-03T04:12:08.410Z,7.00
2019-05-03T04:17:09.752Z,6.67
2019-05-03T04:22:11.044Z,6.77
2019-05-03T04:27:19.780Z,7.17
2019-05-03T04:32:16.002Z,6.27
2019-05-03T04:37:17.309Z,5.97
2019-05-03T04:42:18.637Z,6.23
2019-05-03T04:47:20.219Z,5.80
2019-05-03T04:52:25.513Z,5.50
2019-05-03T04:57:36.704Z,5.90
2019-05-03T05:02:31.210Z,5.43
2019-05-03T05:07:34.865Z,5.10
2019-05-03T05:12:36.215Z,5.30
2019-05-03T05:17:37.504Z,4.90
2019-05-03T05:22:38.778Z,4.77
2019-05-03T05:27:48.699Z,5.23
2019-05-03T05:32:45.283Z,5.80
2019-05-03T05:37:47.273Z,4.40
2019-05-03T05:42:48.691Z,4.40
2019-05-03T05:47:49.985Z,4.07
2019-05-03T05:52:51.592Z,4.30
2019-05-03T05:58:02.893Z,4.63
2019-05-03T06:02:56.146Z,4.37
2019-05-03T06:07:57.862Z,4.50
2019-05-03T06:12:59.280Z,3.93
2019-05-03T06:18:00.510Z,3.87
2019-05-03T06:23:02.001Z,2.97
2019-05-03T06:28:15.582Z,3.43
2019-05-03T06:33:07.021Z,3.90
2019-05-03T06:38:08.272Z,3.27
2019-05-03T06:43:12.926Z,2.93
2019-05-03T06:48:17.262Z,3.37
2019-05-03T06:53:17.351Z,2.87
2019-05-03T06:58:30.521Z,3.07
2019-05-03T07:03:22.144Z,2.97
2019-05-03T07:08:25.359Z,3.37
2019-05-03T07:13:27.327Z,2.50
2019-05-03T07:18:28.578Z,2.57
2019-05-03T07:23:30.188Z,2.43
2019-05-03T07:28:44.455Z,3.20
2019-05-03T07:33:34.885Z,3.27
2019-05-03T07:38:36.571Z,3.03
2019-05-03T07:43:37.973Z,2.97
2019-05-03T07:48:39.610Z,3.13
2019-05-03T07:53:40.873Z,2.83
2019-05-03T07:58:42.248Z,3.20
2019-05-03T08:03:45.116Z,2.80
2019-05-03T08:08:46.940Z,2.90
2019-05-03T08:13:48.387Z,2.67
2019-05-03T08:18:49.895Z,2.20
2019-05-03T08:23:51.470Z,2.30
2019-05-03T08:28:54.464Z,2.77
2019-05-03T08:33:56.301Z,2.60
2019-05-03T08:38:57.770Z,2.43
2019-05-03T08:43:59.184Z,2.70
2019-05-03T08:49:00.673Z,2.00
2019-05-03T08:54:01.933Z,2.40
2019-05-03T08:59:04.691Z,2.57
2019-05-03T09:04:06.472Z,2.57
2019-05-03T09:09:07.701Z,2.40
2019-05-03T09:14:09.230Z,2.73
2019-05-03T09:19:10.759Z,2.03
2019-05-03T09:24:24.449Z,2.83
2019-05-03T09:29:25.752Z,2.07
2019-05-03T09:34:27.216Z,2.60
2019-05-03T09:39:29.280Z,2.27
2019-05-03T09:44:31.622Z,2.80
2019-05-03T09:49:34.744Z,2.60
2019-05-03T09:54:36.279Z,2.97
2019-05-03T09:59:37.542Z,2.20
2019-05-03T10:04:38.926Z,2.10
2019-05-03T10:09:40.554Z,2.17
2019-05-03T10:14:42.084Z,1.95
2019-05-03T10:19:45.210Z,1.80
2019-05-03T10:24:47.058Z,2.42
2019-05-03T10:29:48.334Z,2.20
2019-05-03T10:34:49.688Z,2.40
2019-05-03T10:39:50.958Z,2.50
2019-05-03T10:44:52.786Z,2.15
2019-05-03T10:49:55.027Z,2.25
2019-05-03T10:54:56.445Z,2.45
2019-05-03T10:59:57.687Z,2.60
2019-05-03T11:05:00.052Z,2.42
2019-05-03T11:10:01.785Z,2.15
2019-05-03T11:15:03.651Z,2.60
2019-05-03T11:20:05.281Z,2.37
2019-05-03T11:25:06.773Z,2.35
2019-05-03T11:30:09.711Z,1.90
2019-05-03T11:35:11.862Z,2.27
2019-05-03T11:40:13.148Z,2.30
2019-05-03T11:45:15.208Z,2.50
2019-05-03T11:50:16.649Z,2.07
2019-05-03T11:55:17.965Z,1.70
2019-05-03T12:00:20.730Z,1.90
2019-05-03T12:05:22.118Z,2.00
2019-05-03T12:10:36.129Z,1.87
2019-05-03T12:15:26.554Z,2.33
2019-05-03T12:20:29.393Z,2.10
2019-05-03T12:25:32.466Z,2.33
2019-05-03T12:30:35.579Z,2.97
2019-05-03T12:35:37.009Z,2.30
2019-05-03T12:40:38.262Z,2.43
2019-05-03T12:45:39.546Z,3.07
2019-05-03T12:50:41.664Z,3.00
2019-05-03T12:55:43.321Z,2.97
2019-05-03T13:00:48.214Z,2.50
2019-05-03T13:05:48.282Z,3.13
2019-05-03T13:10:49.761Z,2.47
2019-05-03T13:15:51.152Z,2.77
2019-05-03T13:20:52.541Z,2.50
2019-05-03T13:25:53.798Z,2.50
2019-05-03T13:30:55.036Z,3.07
2019-05-03T13:35:56.513Z,2.53
2019-05-03T13:40:57.832Z,2.90
2019-05-03T13:45:59.434Z,2.80
2019-05-03T13:51:00.780Z,2.87
2019-05-03T13:56:04.567Z,3.37
2019-05-03T14:01:05.963Z,2.70
2019-05-03T14:06:09.014Z,2.90
2019-05-03T14:11:10.748Z,2.67
2019-05-03T14:16:12.072Z,2.83
2019-05-03T14:21:15.102Z,2.53
2019-05-03T14:26:17.136Z,2.37
2019-05-03T14:31:19.195Z,2.30
2019-05-03T14:36:21.136Z,2.40
2019-05-03T14:41:25.333Z,1.93
2019-05-03T14:46:33.097Z,2.37
2019-05-03T14:51:34.818Z,2.30
2019-05-03T14:56:37.194Z,2.40
2019-05-03T15:01:39.237Z,2.47
2019-05-03T15:06:41.167Z,2.33
2019-05-03T15:12:15.530Z,2.40
2019-05-03T15:17:17.063Z,3.33
2019-05-03T15:22:18.647Z,2.40
2019-05-03T15:27:20.509Z,2.73
2019-05-03T15:32:22.744Z,2.20
2019-05-03T15:37:25.468Z,3.20
2019-05-03T15:42:27.287Z,2.47
2019-05-03T15:47:28.839Z,2.27
2019-05-03T15:52:30.379Z,3.37
2019-05-03T15:57:32.140Z,2.80
2019-05-03T16:02:35.169Z,2.50
2019-05-03T16:07:38.871Z,2.50
2019-05-03T16:12:40.365Z,2.50
2019-05-03T16:17:42.317Z,2.67
2019-05-03T16:22:46.396Z,2.80
2019-05-03T16:27:47.648Z,2.10
2019-05-03T16:32:49.449Z,2.50
2019-05-03T16:37:51.247Z,3.00
2019-05-03T16:42:52.747Z,2.57
2019-05-03T16:47:56.304Z,3.37
2019-05-03T16:52:57.543Z,2.40
2019-05-03T16:57:59.121Z,2.60
2019-05-03T17:03:01.017Z,2.60
2019-05-03T17:08:04.565Z,2.80
2019-05-03T17:13:06.509Z,2.93
2019-05-03T17:18:08.386Z,2.70
2019-05-03T17:23:10.299Z,2.30
2019-05-03T17:28:11.826Z,2.67
2019-05-03T17:33:13.685Z,3.20
2019-05-03T17:38:15.583Z,2.67
2019-05-03T17:43:17.219Z,2.70
2019-05-03T17:48:18.945Z,2.50
2019-05-03T17:53:20.425Z,2.97
2019-05-03T17:58:24.193Z,2.87
2019-05-03T18:03:25.878Z,2.47
2019-05-03T18:08:27.605Z,3.20
2019-05-03T18:13:29.089Z,3.30
2019-05-03T18:18:31.003Z,2.90
2019-05-03T18:23:35.016Z,3.07
2019-05-03T18:28:36.523Z,3.50
2019-05-03T18:33:38.066Z,3.33
2019-05-03T18:38:39.697Z,3.30
2019-05-03T18:43:41.582Z,3.90
2019-05-03T18:48:44.541Z,2.63
2019-05-03T18:53:46.242Z,2.00
2019-05-03T18:58:48.208Z,2.00
2019-05-03T19:03:50.502Z,2.20
2019-05-03T19:08:54.227Z,2.10
2019-05-03T19:13:56.253Z,1.90
2019-05-03T19:18:57.811Z,2.17
2019-05-03T19:23:59.563Z,3.12
2019-05-03T19:29:01.094Z,4.50
2019-05-03T19:34:05.932Z,5.00
2019-05-03T19:39:07.465Z,3.40
2019-05-03T19:44:09.403Z,4.23
2019-05-03T19:49:11.116Z,4.53
2019-05-03T19:54:14.670Z,4.70
2019-05-03T19:59:17.035Z,3.87
2019-05-03T20:04:18.542Z,4.17
2019-05-03T20:09:20.595Z,3.87
2019-05-03T20:14:22.119Z,3.93
2019-05-03T20:19:25.719Z,4.00
2019-05-03T20:24:27.629Z,3.97
2019-05-03T20:29:29.595Z,3.83
2019-05-03T20:34:33.169Z,4.27
2019-05-03T20:39:34.873Z,4.13
2019-05-03T20:44:36.576Z,4.40
2019-05-03T20:49:38.444Z,3.90
2019-05-03T20:54:40.226Z,3.60
2019-05-03T20:59:46.905Z,3.77
2019-05-03T21:04:45.809Z,3.20
2019-05-03T21:09:47.721Z,2.80
2019-05-03T21:14:49.621Z,3.37
2019-05-03T21:19:51.156Z,3.20
2019-05-03T21:24:54.739Z,3.30
2019-05-03T21:29:56.985Z,3.33
2019-05-03T21:34:59.072Z,3.33
2019-05-03T21:40:00.859Z,3.77
2019-05-03T21:45:04.572Z,3.90
2019-05-03T21:50:06.456Z,3.53
2019-05-03T21:55:07.944Z,4.17
2019-05-03T22:00:09.612Z,4.33
2019-05-03T22:05:11.381Z,4.57
2019-05-03T22:10:15.147Z,4.33
2019-05-03T22:15:17.143Z,4.33
2019-05-03T22:20:18.948Z,5.30
2019-05-03T22:25:20.827Z,5.20
2019-05-03T22:30:24.326Z,6.20
2019-05-03T22:35:26.692Z,6.03
2019-05-03T22:40:28.574Z,6.40
2019-05-03T22:45:30.140Z,7.23
2019-05-03T22:50:31.626Z,6.47
2019-05-03T22:55:33.117Z,6.87
2019-05-03T23:00:35.417Z,6.17
2019-05-03T23:05:37.576Z,4.97
2019-05-03T23:10:39.114Z,4.70
2019-05-03T23:15:40.884Z,5.27
2019-05-03T23:20:42.286Z,4.73
2019-05-03T23:25:44.903Z,4.93
2019-05-03T23:30:46.539Z,4.10
2019-05-03T23:35:48.025Z,3.90
2019-05-03T23:40:49.555Z,3.40
2019-05-03T23:45:51.060Z,2.97
2019-05-03T23:50:52.812Z,3.37
2019-05-03T23:55:54.342Z,3.70
